createdAt,value
2023-04-24T00:00:46.313Z,9.77
2023-04-24T00:03:14.325Z,10.13
2023-04-24T00:05:42.457Z,9.20
2023-04-24T00:08:10.065Z,9.40
2023-04-24T00:10:37.718Z,9.43
2023-04-24T00:13:05.597Z,9.27
2023-04-24T00:15:33.300Z,10.57
2023-04-24T00:18:02.536Z,9.93
2023-04-24T00:20:30.675Z,13.90
2023-04-24T00:22:58.265Z,14.97
2023-04-24T00:25:25.788Z,15.33
2023-04-24T00:27:53.345Z,16.73
2023-04-24T00:30:21.053Z,16.07
2023-04-24T00:32:48.712Z,16.13
2023-04-24T00:35:16.243Z,12.37
2023-04-24T00:37:43.894Z,13.37
2023-04-24T00:40:12.230Z,12.00
2023-04-24T00:42:41.615Z,12.63
2023-04-24T00:45:09.671Z,11.27
2023-04-24T00:47:37.686Z,11.50
2023-04-24T00:50:07.510Z,11.50
2023-04-24T00:52:35.845Z,11.53
2023-04-24T00:55:04.118Z,10.77
2023-04-24T00:57:32.188Z,10.77
2023-04-24T01:00:00.066Z,10.50
2023-04-24T01:02:28.048Z,9.27
2023-04-24T01:04:55.777Z,10.13
2023-04-24T01:07:23.568Z,10.77
2023-04-24T01:09:53.299Z,11.27
2023-04-24T01:12:21.436Z,9.87
2023-04-24T01:14:49.106Z,10.27
2023-04-24T01:17:16.846Z,11.70
2023-04-24T01:19:46.173Z,10.17
2023-04-24T01:22:18.296Z,10.40
2023-04-24T01:24:46.020Z,12.23
2023-04-24T01:27:14.125Z,9.97
2023-04-24T01:29:42.401Z,10.83
2023-04-24T01:32:10.729Z,10.70
2023-04-24T01:34:40.888Z,10.33
2023-04-24T01:37:08.570Z,13.53
2023-04-24T01:39:36.196Z,12.27
2023-04-24T01:42:03.977Z,10.33
2023-04-24T01:44:32.526Z,10.10
2023-04-24T01:47:02.359Z,11.27
2023-04-24T01:49:29.997Z,11.23
2023-04-24T01:51:57.578Z,10.30
2023-04-24T01:54:25.135Z,11.10
2023-04-24T01:56:53.286Z,11.07
2023-04-24T01:59:23.095Z,11.43
2023-04-24T02:01:50.658Z,14.70
2023-04-24T02:04:18.383Z,10.60
2023-04-24T02:06:45.962Z,11.37
2023-04-24T02:09:13.568Z,11.37
2023-04-24T02:11:41.132Z,11.43
2023-04-24T02:14:08.757Z,10.67
2023-04-24T02:16:37.179Z,11.03
2023-04-24T02:19:05.279Z,10.20
2023-04-24T02:21:33.030Z,10.53
2023-04-24T02:24:00.613Z,11.40
2023-04-24T02:26:28.210Z,11.60
2023-04-24T02:28:56.049Z,12.50
2023-04-24T02:31:23.766Z,11.10
2023-04-24T02:33:51.398Z,11.40
2023-04-24T02:36:18.894Z,11.17
2023-04-24T02:38:46.653Z,11.57
2023-04-24T02:41:14.240Z,11.10
2023-04-24T02:43:41.783Z,11.77
2023-04-24T02:46:09.389Z,12.77
2023-04-24T02:48:36.962Z,12.33
2023-04-24T02:51:05.056Z,11.57
2023-04-24T02:53:32.656Z,13.27
2023-04-24T02:56:00.353Z,11.43
2023-04-24T02:58:27.964Z,12.03
2023-04-24T03:00:59.367Z,12.20
2023-04-24T03:03:27.225Z,14.47
2023-04-24T03:05:54.876Z,12.87
2023-04-24T03:08:22.473Z,13.43
2023-04-24T03:10:50.571Z,12.53
2023-04-24T03:13:18.320Z,12.87
2023-04-24T03:15:47.630Z,12.73
2023-04-24T03:18:15.383Z,12.70
2023-04-24T03:20:43.565Z,12.63
2023-04-24T03:23:11.175Z,12.97
2023-04-24T03:25:38.750Z,13.30
2023-04-24T03:28:06.584Z,13.20
2023-04-24T03:30:34.167Z,12.83
2023-04-24T03:33:02.120Z,12.17
2023-04-24T03:35:29.728Z,14.33
2023-04-24T03:37:57.204Z,13.17
2023-04-24T03:40:24.846Z,13.30
2023-04-24T03:42:52.364Z,13.43
2023-04-24T03:45:19.973Z,13.00
2023-04-24T03:47:47.699Z,11.63
2023-04-24T03:50:15.255Z,13.03
2023-04-24T03:52:42.790Z,12.77
2023-04-24T03:55:14.186Z,12.90
2023-04-24T03:57:42.617Z,12.13
2023-04-24T04:00:11.174Z,12.40
2023-04-24T04:02:38.887Z,12.17
2023-04-24T04:05:06.737Z,12.10
2023-04-24T04:07:34.413Z,12.97
2023-04-24T04:10:02.102Z,11.90
2023-04-24T04:12:29.738Z,12.30
2023-04-24T04:14:57.339Z,13.43
2023-04-24T04:17:24.851Z,12.60
2023-04-24T04:19:52.451Z,13.00
2023-04-24T04:22:19.972Z,12.97
2023-04-24T04:24:47.509Z,11.63
2023-04-24T04:27:15.404Z,11.80
2023-04-24T04:29:43.448Z,11.97
2023-04-24T04:32:11.398Z,12.27
2023-04-24T04:34:39.231Z,12.57
2023-04-24T04:37:07.137Z,12.83
2023-04-24T04:39:34.684Z,13.67
2023-04-24T04:42:02.271Z,12.93
2023-04-24T04:44:30.576Z,12.57
2023-04-24T04:46:58.714Z,12.67
2023-04-24T04:49:26.781Z,12.70
2023-04-24T04:51:54.405Z,12.57
2023-04-24T04:54:22.023Z,12.83
2023-04-24T04:56:52.059Z,13.17
2023-04-24T04:59:19.628Z,13.40
2023-04-24T05:01:47.104Z,12.23
2023-04-24T05:04:14.749Z,13.27
2023-04-24T05:06:42.470Z,12.40
2023-04-24T05:09:10.084Z,13.33
2023-04-24T05:11:37.638Z,12.37
2023-04-24T05:14:05.245Z,12.07
2023-04-24T05:16:32.950Z,11.93
2023-04-24T05:19:00.476Z,11.43
2023-04-24T05:21:28.097Z,10.80
2023-04-24T05:23:55.731Z,11.40
2023-04-24T05:26:24.103Z,10.43
2023-04-24T05:28:51.761Z,11.93
2023-04-24T05:31:19.327Z,11.97
2023-04-24T05:33:46.994Z,9.97
2023-04-24T05:36:14.592Z,9.90
2023-04-24T05:38:42.183Z,9.70
2023-04-24T05:41:09.896Z,10.27
2023-04-24T05:43:37.427Z,9.90
2023-04-24T05:46:05.000Z,10.20
2023-04-24T05:48:32.876Z,10.97
2023-04-24T05:51:00.781Z,9.50
2023-04-24T05:53:28.392Z,11.47
2023-04-24T05:55:56.067Z,9.80
2023-04-24T05:58:23.616Z,9.77
2023-04-24T06:00:51.170Z,9.33
2023-04-24T06:03:18.887Z,8.80
2023-04-24T06:05:46.980Z,9.33
2023-04-24T06:08:14.665Z,8.87
2023-04-24T06:10:42.460Z,9.23
2023-04-24T06:13:10.054Z,10.03
2023-04-24T06:15:37.732Z,8.83
2023-04-24T06:18:05.799Z,9.67
2023-04-24T06:20:33.487Z,9.27
2023-04-24T06:23:01.038Z,10.13
2023-04-24T06:25:29.494Z,8.70
2023-04-24T06:27:58.088Z,9.53
2023-04-24T06:30:25.858Z,9.00
2023-04-24T06:32:55.798Z,8.17
2023-04-24T06:35:25.032Z,8.93
2023-04-24T06:37:52.898Z,9.00
2023-04-24T06:40:20.577Z,7.93
2023-04-24T06:42:48.114Z,6.80
2023-04-24T06:45:15.878Z,8.40
2023-04-24T06:47:43.457Z,7.03
2023-04-24T06:50:12.646Z,6.70
2023-04-24T06:52:40.226Z,6.40
2023-04-24T06:55:08.778Z,6.47
2023-04-24T06:57:36.608Z,7.27
2023-04-24T07:00:06.467Z,6.10
2023-04-24T07:02:34.123Z,6.50
2023-04-24T07:05:02.501Z,7.90
2023-04-24T07:07:30.192Z,6.40
2023-04-24T07:09:58.832Z,7.47
2023-04-24T07:12:26.430Z,6.37
2023-04-24T07:14:54.031Z,6.50
2023-04-24T07:17:21.632Z,7.20
2023-04-24T07:19:49.196Z,7.23
2023-04-24T07:22:18.168Z,7.10
2023-04-24T07:24:46.586Z,6.03
2023-04-24T07:27:16.157Z,6.30
2023-04-24T07:29:44.853Z,6.67
2023-04-24T07:32:12.821Z,7.60
2023-04-24T07:34:40.520Z,7.00
2023-04-24T07:37:08.138Z,7.47
2023-04-24T07:39:35.715Z,8.40
2023-04-24T07:42:03.532Z,7.63
2023-04-24T07:44:31.158Z,6.13
2023-04-24T07:46:58.870Z,6.30
2023-04-24T07:49:26.598Z,5.50
2023-04-24T07:51:54.131Z,6.57
2023-04-24T07:54:22.232Z,5.70
2023-04-24T07:56:50.939Z,5.33
2023-04-24T07:59:18.581Z,4.60
2023-04-24T08:01:46.182Z,5.37
2023-04-24T08:04:14.006Z,4.20
2023-04-24T08:06:42.039Z,6.53
2023-04-24T08:09:09.654Z,5.30
2023-04-24T08:11:37.275Z,4.83
2023-04-24T08:14:04.839Z,4.70
2023-04-24T08:16:34.138Z,4.27
2023-04-24T08:19:01.889Z,4.20
2023-04-24T08:21:29.424Z,4.27
2023-04-24T08:23:56.933Z,4.93
2023-04-24T08:26:24.816Z,4.23
2023-04-24T08:28:52.559Z,3.97
2023-04-24T08:31:20.253Z,5.07
2023-04-24T08:33:49.266Z,4.30
2023-04-24T08:36:16.962Z,4.40
2023-04-24T08:38:44.861Z,3.60
2023-04-24T08:41:16.001Z,5.93
2023-04-24T08:43:44.214Z,3.73
2023-04-24T08:46:14.635Z,4.73
2023-04-24T08:48:42.432Z,5.70
2023-04-24T08:51:10.786Z,4.30
2023-04-24T08:53:39.071Z,4.23
2023-04-24T08:56:07.951Z,4.50
2023-04-24T08:58:36.969Z,5.40
2023-04-24T09:01:06.205Z,4.63
2023-04-24T09:03:35.149Z,5.63
2023-04-24T09:06:03.962Z,5.40
2023-04-24T09:08:32.349Z,4.90
2023-04-24T09:11:00.784Z,5.00
2023-04-24T09:13:28.603Z,4.40
2023-04-24T09:15:58.597Z,4.40
2023-04-24T09:18:27.864Z,4.50
2023-04-24T09:21:08.646Z,4.10
2023-04-24T09:23:36.442Z,3.67
2023-04-24T09:26:09.095Z,4.90
2023-04-24T09:28:39.751Z,4.67
2023-04-24T09:31:14.275Z,3.33
2023-04-24T09:33:42.005Z,4.37
2023-04-24T09:36:10.778Z,3.40
2023-04-24T09:38:39.805Z,2.70
2023-04-24T09:41:10.118Z,3.03
2023-04-24T09:43:37.707Z,2.77
2023-04-24T09:46:10.778Z,3.40
2023-04-24T09:48:39.288Z,2.83
2023-04-24T09:51:11.698Z,3.73
2023-04-24T09:53:40.554Z,3.33
2023-04-24T09:56:14.089Z,4.77
2023-04-24T09:58:41.794Z,3.47
2023-04-24T10:01:09.600Z,4.23
2023-04-24T10:03:38.389Z,3.47
2023-04-24T10:06:10.206Z,4.23
2023-04-24T10:08:38.934Z,3.47
2023-04-24T10:11:07.485Z,4.20
2023-04-24T10:13:36.707Z,4.43
2023-04-24T10:16:05.674Z,4.20
2023-04-24T10:18:35.098Z,2.97
2023-04-24T10:21:03.832Z,4.10
2023-04-24T10:23:32.431Z,3.47
2023-04-24T10:26:01.823Z,3.83
2023-04-24T10:28:31.423Z,3.97
2023-04-24T10:30:59.879Z,3.60
2023-04-24T10:33:28.151Z,4.10
2023-04-24T10:35:56.730Z,4.60
2023-04-24T10:38:28.130Z,4.93
2023-04-24T10:41:24.549Z,4.00
2023-04-24T10:44:13.180Z,5.03
2023-04-24T10:46:47.541Z,4.77
2023-04-24T10:49:15.344Z,4.50
2023-04-24T10:51:52.085Z,4.67
2023-04-24T10:54:53.558Z,5.17
2023-04-24T10:57:23.918Z,6.50
2023-04-24T11:00:13.642Z,4.37
2023-04-24T11:02:49.647Z,4.23
2023-04-24T11:05:19.267Z,4.63
2023-04-24T11:08:17.882Z,4.77
2023-04-24T11:10:47.912Z,3.80
2023-04-24T11:13:23.939Z,5.27
2023-04-24T11:16:31.265Z,3.80
2023-04-24T11:19:27.015Z,3.90
2023-04-24T11:22:06.369Z,3.70
2023-04-24T11:24:49.270Z,4.27
2023-04-24T11:27:22.067Z,4.90
2023-04-24T11:29:59.177Z,5.33
2023-04-24T11:32:38.423Z,4.17
2023-04-24T11:35:10.174Z,5.60
2023-04-24T11:37:44.035Z,3.90
2023-04-24T11:40:16.761Z,6.17
2023-04-24T11:42:46.237Z,6.00
2023-04-24T11:45:19.416Z,4.07
2023-04-24T11:47:47.136Z,5.20
2023-04-24T11:50:20.469Z,4.77
2023-04-24T11:52:50.969Z,5.40
2023-04-24T11:55:18.782Z,4.90
2023-04-24T11:57:49.782Z,3.97
2023-04-24T12:00:20.154Z,4.63
2023-04-24T12:02:51.513Z,4.97
2023-04-24T12:05:28.002Z,5.47
2023-04-24T12:07:56.079Z,4.00
2023-04-24T12:10:29.671Z,7.37
2023-04-24T12:12:59.694Z,3.23
2023-04-24T12:15:27.921Z,3.30
2023-04-24T12:17:57.575Z,2.70
2023-04-24T12:20:34.219Z,3.87
2023-04-24T12:23:02.786Z,33.77
2023-04-24T12:25:35.898Z,34.77
2023-04-24T12:28:06.927Z,26.33
2023-04-24T12:30:46.519Z,23.07
2023-04-24T12:33:14.245Z,28.57
2023-04-24T12:35:42.610Z,4.47
2023-04-24T12:38:15.359Z,4.23
2023-04-24T12:40:44.590Z,7.00
2023-04-24T12:43:22.178Z,3.27
2023-04-24T12:45:49.952Z,5.57
2023-04-24T12:48:17.717Z,4.03
2023-04-24T12:50:47.296Z,3.60
2023-04-24T12:53:16.510Z,3.93
2023-04-24T12:55:45.544Z,3.37
2023-04-24T12:58:13.096Z,3.83
2023-04-24T13:00:41.050Z,4.33
2023-04-24T13:03:08.818Z,7.47
2023-04-24T13:05:36.598Z,7.10
2023-04-24T13:08:04.273Z,7.50
2023-04-24T13:10:32.132Z,7.67
2023-04-24T13:12:59.930Z,8.00
2023-04-24T13:15:27.536Z,6.20
2023-04-24T13:17:55.349Z,7.17
2023-04-24T13:20:23.356Z,5.00
2023-04-24T13:22:51.117Z,4.17
2023-04-24T13:25:20.346Z,4.57
2023-04-24T13:27:48.011Z,3.20
2023-04-24T13:30:15.649Z,2.80
2023-04-24T13:32:43.504Z,2.60
2023-04-24T13:35:11.330Z,2.33
2023-04-24T13:37:38.925Z,2.93
2023-04-24T13:40:08.270Z,3.00
2023-04-24T13:42:37.668Z,2.50
2023-04-24T13:45:21.262Z,2.00
2023-04-24T13:47:52.763Z,2.80
2023-04-24T13:50:21.574Z,1.90
2023-04-24T13:52:49.114Z,4.10
2023-04-24T13:55:16.839Z,1.60
2023-04-24T13:57:44.552Z,2.43
2023-04-24T14:00:12.928Z,1.93
2023-04-24T14:02:40.738Z,1.63
2023-04-24T14:05:09.049Z,2.40
2023-04-24T14:07:36.827Z,1.70
2023-04-24T14:10:04.896Z,2.80
2023-04-24T14:12:32.563Z,1.63
2023-04-24T14:15:00.519Z,2.60
2023-04-24T14:17:28.241Z,1.70
2023-04-24T14:19:57.579Z,1.70
2023-04-24T14:22:25.270Z,1.67
2023-04-24T14:24:53.017Z,2.17
2023-04-24T14:27:27.645Z,1.93
2023-04-24T14:30:03.798Z,3.03
2023-04-24T14:32:31.490Z,3.50
2023-04-24T14:34:59.457Z,3.43
2023-04-24T14:37:27.024Z,3.77
2023-04-24T14:40:08.803Z,3.23
2023-04-24T14:42:42.208Z,2.87
2023-04-24T14:45:10.761Z,2.47
2023-04-24T14:47:39.073Z,2.23
2023-04-24T14:50:09.388Z,4.30
2023-04-24T14:52:37.316Z,3.30
2023-04-24T14:55:05.771Z,3.77
2023-04-24T14:57:33.452Z,3.80
2023-04-24T15:00:01.526Z,6.30
2023-04-24T15:02:29.313Z,2.53
2023-04-24T15:04:57.685Z,3.70
2023-04-24T15:07:25.699Z,5.70
2023-04-24T15:09:54.570Z,5.70
2023-04-24T15:12:23.604Z,7.90
2023-04-24T15:14:51.511Z,3.10
2023-04-24T15:17:19.184Z,2.90
2023-04-24T15:19:47.265Z,3.23
2023-04-24T15:22:16.071Z,4.07
2023-04-24T15:24:43.601Z,4.33
2023-04-24T15:27:12.672Z,4.07
2023-04-24T15:29:40.381Z,5.17
2023-04-24T15:32:10.032Z,4.40
2023-04-24T15:34:38.394Z,5.73
2023-04-24T15:37:06.129Z,6.03
2023-04-24T15:39:33.895Z,7.60
2023-04-24T15:42:01.813Z,4.73
2023-04-24T15:44:29.496Z,5.00
2023-04-24T15:46:57.109Z,4.50
2023-04-24T15:49:24.702Z,4.20
2023-04-24T15:51:52.209Z,4.77
2023-04-24T15:54:19.760Z,4.13
2023-04-24T15:56:47.454Z,3.60
2023-04-24T15:59:14.992Z,4.93
2023-04-24T16:01:42.562Z,3.60
2023-04-24T16:04:10.593Z,3.07
2023-04-24T16:06:38.511Z,3.77
2023-04-24T16:09:06.616Z,3.40
2023-04-24T16:11:36.797Z,3.10
2023-04-24T16:14:04.355Z,3.70
2023-04-24T16:16:32.323Z,4.57
2023-04-24T16:19:00.052Z,3.83
2023-04-24T16:21:27.672Z,5.03
2023-04-24T16:23:55.396Z,3.40
2023-04-24T16:26:23.081Z,3.63
2023-04-24T16:28:50.869Z,3.20
2023-04-24T16:31:18.974Z,3.00
2023-04-24T16:33:46.945Z,3.10
2023-04-24T16:36:15.419Z,3.00
2023-04-24T16:38:43.391Z,2.97
2023-04-24T16:41:11.744Z,2.57
2023-04-24T16:43:39.420Z,2.43
2023-04-24T16:46:07.283Z,2.50
2023-04-24T16:48:35.353Z,3.07
2023-04-24T16:51:03.054Z,1.93
2023-04-24T16:53:30.725Z,3.43
2023-04-24T16:55:58.401Z,3.10
2023-04-24T16:58:26.199Z,2.33
2023-04-24T17:00:53.923Z,2.30
2023-04-24T17:03:21.872Z,2.70
2023-04-24T17:05:50.917Z,4.10
2023-04-24T17:08:18.512Z,4.50
2023-04-24T17:10:46.057Z,16.77
2023-04-24T17:13:14.631Z,13.50
2023-04-24T17:15:45.320Z,12.77
2023-04-24T17:18:13.252Z,8.53
2023-04-24T17:20:40.949Z,6.60
2023-04-24T17:23:12.172Z,3.27
2023-04-24T17:25:40.551Z,4.00
2023-04-24T17:28:28.251Z,7.17
2023-04-24T17:30:58.648Z,11.93
2023-04-24T17:33:31.081Z,9.17
2023-04-24T17:36:00.665Z,6.50
2023-04-24T17:38:31.623Z,5.50
2023-04-24T17:41:00.622Z,4.20
2023-04-24T17:43:28.366Z,5.77
2023-04-24T17:45:57.497Z,4.20
2023-04-24T17:48:26.015Z,4.40
2023-04-24T17:50:54.470Z,4.73
2023-04-24T17:53:23.144Z,5.50
2023-04-24T17:55:50.895Z,4.40
2023-04-24T17:58:19.341Z,9.60
2023-04-24T18:00:47.332Z,13.87
2023-04-24T18:03:15.102Z,5.50
2023-04-24T18:05:43.056Z,4.07
2023-04-24T18:08:10.902Z,6.27
2023-04-24T18:10:38.464Z,5.30
2023-04-24T18:13:06.422Z,4.70
2023-04-24T18:15:35.807Z,4.67
2023-04-24T18:18:04.312Z,62.30
2023-04-24T18:20:31.990Z,41.17
2023-04-24T18:23:01.508Z,39.57
2023-04-24T18:25:30.965Z,13.87
2023-04-24T18:27:58.691Z,4.90
2023-04-24T18:30:26.408Z,4.53
2023-04-24T18:32:54.736Z,7.13
2023-04-24T18:35:24.735Z,8.77
2023-04-24T18:37:53.009Z,10.07
2023-04-24T18:40:20.848Z,11.50
2023-04-24T18:42:48.922Z,10.13
2023-04-24T18:45:16.924Z,8.80
2023-04-24T18:47:44.984Z,8.77
2023-04-24T18:50:12.875Z,8.97
2023-04-24T18:52:40.957Z,10.10
2023-04-24T18:55:10.394Z,8.47
2023-04-24T18:57:38.205Z,8.20
2023-04-24T19:00:07.986Z,7.40
2023-04-24T19:02:36.259Z,8.83
2023-04-24T19:05:04.615Z,7.27
2023-04-24T19:07:32.257Z,8.47
2023-04-24T19:09:59.784Z,8.13
2023-04-24T19:12:27.460Z,7.63
2023-04-24T19:14:56.336Z,7.80
2023-04-24T19:17:25.586Z,7.10
2023-04-24T19:19:53.431Z,8.43
2023-04-24T19:22:21.157Z,8.13
2023-04-24T19:24:48.811Z,8.40
2023-04-24T19:27:16.608Z,8.97
2023-04-24T19:29:44.262Z,9.73
2023-04-24T19:32:11.997Z,8.13
2023-04-24T19:34:40.637Z,8.23
2023-04-24T19:37:08.771Z,13.37
2023-04-24T19:39:36.529Z,19.40
2023-04-24T19:42:07.265Z,21.43
2023-04-24T19:44:35.256Z,16.57
2023-04-24T19:47:02.887Z,19.07
2023-04-24T19:49:30.867Z,17.43
2023-04-24T19:51:58.483Z,16.97
2023-04-24T19:54:26.609Z,13.57
2023-04-24T19:56:54.204Z,16.37
2023-04-24T19:59:21.880Z,9.63
2023-04-24T20:01:51.142Z,14.63
2023-04-24T20:04:23.440Z,11.30
2023-04-24T20:06:51.256Z,9.87
2023-04-24T20:09:18.755Z,9.40
2023-04-24T20:11:49.084Z,9.07
2023-04-24T20:14:17.105Z,9.70
2023-04-24T20:16:45.383Z,8.90
2023-04-24T20:19:15.894Z,9.27
2023-04-24T20:21:43.711Z,10.13
2023-04-24T20:24:11.381Z,25.27
2023-04-24T20:26:39.294Z,26.60
2023-04-24T20:29:07.542Z,44.20
2023-04-24T20:31:35.825Z,9.37
2023-04-24T20:34:04.349Z,9.47
2023-04-24T20:36:33.933Z,10.03
2023-04-24T20:39:01.846Z,10.70
2023-04-24T20:41:30.946Z,11.37
2023-04-24T20:43:58.502Z,11.73
2023-04-24T20:46:26.157Z,11.43
2023-04-24T20:48:54.784Z,12.50
2023-04-24T20:51:22.467Z,13.13
2023-04-24T20:53:54.411Z,11.77
2023-04-24T20:56:22.201Z,11.77
2023-04-24T20:58:50.004Z,14.87
2023-04-24T21:01:18.262Z,12.13
2023-04-24T21:03:45.946Z,11.93
2023-04-24T21:06:13.771Z,12.47
2023-04-24T21:08:41.462Z,13.43
2023-04-24T21:11:09.139Z,11.27
2023-04-24T21:13:36.680Z,12.37
2023-04-24T21:16:04.545Z,10.93
2023-04-24T21:18:32.304Z,10.87
2023-04-24T21:20:59.939Z,12.47
2023-04-24T21:23:27.638Z,10.40
2023-04-24T21:25:55.248Z,9.80
2023-04-24T21:28:25.138Z,8.27
2023-04-24T21:30:52.809Z,8.87
2023-04-24T21:33:20.572Z,8.70
2023-04-24T21:35:48.362Z,7.37
2023-04-24T21:38:16.477Z,8.23
2023-04-24T21:40:44.034Z,7.30
2023-04-24T21:43:12.662Z,7.53
2023-04-24T21:45:40.358Z,6.73
2023-04-24T21:48:07.972Z,5.07
2023-04-24T21:50:35.859Z,4.73
2023-04-24T21:53:03.482Z,4.43
2023-04-24T21:55:31.303Z,4.67
2023-04-24T21:57:58.808Z,3.30
2023-04-24T22:00:26.470Z,2.63
2023-04-24T22:02:54.126Z,3.40
2023-04-24T22:05:21.855Z,3.53
2023-04-24T22:07:50.830Z,2.20
2023-04-24T22:10:18.524Z,2.10
2023-04-24T22:12:46.345Z,2.23
2023-04-24T22:15:13.991Z,2.70
2023-04-24T22:17:41.700Z,3.00
2023-04-24T22:20:09.596Z,1.70
2023-04-24T22:22:37.237Z,2.77
2023-04-24T22:25:05.381Z,3.67
2023-04-24T22:27:35.609Z,1.80
2023-04-24T22:30:04.045Z,2.60
2023-04-24T22:32:33.240Z,2.33
2023-04-24T22:35:00.987Z,2.63
2023-04-24T22:37:28.536Z,5.63
2023-04-24T22:39:56.468Z,2.37
2023-04-24T22:42:24.216Z,2.13
2023-04-24T22:44:52.299Z,1.20
2023-04-24T22:47:20.315Z,1.77
2023-04-24T22:49:47.947Z,2.70
2023-04-24T22:52:15.727Z,1.43
2023-04-24T22:54:43.264Z,1.40
2023-04-24T22:57:12.598Z,1.73
2023-04-24T22:59:40.325Z,1.37
2023-04-24T23:02:08.006Z,1.20
2023-04-24T23:04:35.807Z,1.73
2023-04-24T23:07:03.564Z,1.13
2023-04-24T23:09:31.118Z,1.00
2023-04-24T23:11:58.771Z,2.40
2023-04-24T23:14:26.302Z,1.37
2023-04-24T23:16:53.843Z,1.63
2023-04-24T23:19:21.539Z,1.00
2023-04-24T23:21:51.207Z,2.07
2023-04-24T23:24:18.739Z,1.30
2023-04-24T23:26:46.309Z,0.70
2023-04-24T23:29:13.802Z,1.50
2023-04-24T23:31:41.507Z,0.87
2023-04-24T23:34:09.086Z,0.83
2023-04-24T23:36:36.898Z,0.70
2023-04-24T23:39:05.538Z,1.73
2023-04-24T23:41:33.188Z,1.90
2023-04-24T23:44:00.816Z,1.03
2023-04-24T23:46:28.392Z,0.93
2023-04-24T23:48:56.186Z,0.70
2023-04-24T23:51:23.965Z,1.07
2023-04-24T23:53:53.540Z,1.23
2023-04-24T23:56:24.461Z,0.60
2023-04-24T23:58:52.155Z,0.70
